Columbia Metropolitan Airport
KCAE : now visible

Airfield :











YOU CAN JOIN US ON...

 
LOGIN :

Register | Disclaimer

   EN    FR    IT 

 









Legend :    VFR   Marginal VFR   IFR   Intensive IFR   Very Intensive IFR
Visi :
Ceiling :
>= 8 km
>= 3000ft
5 to 8 km
1000 to 3000 ft
1500m to 5 km
500 to 1000 ft
800 to 1500m
200 to 500 ft
< 800m
< 200 ft
Symbols :   Thunderstorms  Fog  Heavy snow  Heavy precipitations  Wind > 20 kt






- Airport Elevation : 236 ft
- IATA code : CAE


KCAE - Columbia Metropolitan

CURRENT METAR :
  • 191756Z 00000KT 10SM OVC012 24/22 A3004 RMK AO2 SLP168 60001 T02440222 10256 20217 58005

EXPIRED METARs :
  • 191656Z 05003KT 6SM BR OVC009 23/22 A3004 RMK AO2 RAE1559 CIG 006V011 SLP171 P0000 T02330222
  • 191605Z 03004KT 3SM BR OVC008 23/22 A3005 RMK AO2 RAE1559 CIG 005V011 P0000 T02330222
  • 191556Z 02004KT 2 1/2SM -RA BR OVC008 23/22 A3005 RMK AO2 RAB10 CIG 005V011 SLP174 P0001 T02280222
  • 191513Z 08005KT 3SM -RA BR BKN008 OVC019 23/22 A3005 RMK AO2 RAB10 CIG 006V012 P0000 T02280217

TAF KCAE
Valid from the 19 at 18:00 until the 20 at 18:00 UTC


191738Z 1918/2018 09004KT P6SM VCSH SCT010 BKN025
TEMPO 1919/1923 2SM +SHRA BR BKN010
FM200100 VRB03KT P6SM BKN009
FM200900 00000KT 3SM BR BKN004
FM201400 VRB03KT P6SM OVC015
KZJX FIR / North America



MET'MAP, your aeronautical weather chart ! - Copyright ORBIFLY December 2007 - Disclaimer

ORBIFLY MET'MAP TEAM :

Programming & Development : Alexandra Zaïnal
Original concept : Baudouin d'Aumeries
Technical & hardware support : Manuel Goepfert
Assistance : Marc-Olivier Méhu




SOURCES & CREDITS :

   NOAA       Earth
Advisory